17. Mai 2022

Uhrzeit Code Wetter Temp. Sichtweite Wolken Wind METAR/SPECI
15:20
V
20 °C 10 km+ 8.000 ft 240°   240° 8 kt METAR ETWM 171320Z 24008KT 9999 FEW025 SCT067 BKN080 20/13 Q1020 BLU
14:20
V
20 °C 10 km+ 6.700 ft 220°   220° 7 kt METAR ETWM 171220Z 22007KT 9999 SCT031 BKN067 20/13 Q1020 BLU
13:20
V
22 °C 10 km+ 9.300 ft 270°   270° 6 kt METAR ETWM 171120Z 27006KT 9999 FEW038 BKN093 22/11 Q1020 BLU
12:20
V
21 °C 10 km+ 37.000 ft 260°   260° 5 kt METAR ETWM 171020Z 26005KT 9999 FEW040 BKN370 21/11 Q1021 BLU+
11:20
V
20 °C 10 km+ 30.000 ft 280°   280° 6 kt METAR ETWM 170920Z 28006KT 9999 FEW030 BKN300 20/12 Q1020 BLU+
10:20
V
19 °C 10 km+ 29.000 ft 250°   250° 5 kt METAR ETWM 170820Z 25005KT 9999 FEW020 BKN290 19/13 Q1020 BLU+
09:20
V
17 °C 10 km+ 29.000 ft 260°   260° 6 kt METAR ETWM 170720Z 26006KT 9999 FEW012 BKN290 17/13 Q1020 BLU+
08:20
V
16 °C 10 km+ 28.000 ft 250°   250° 4 kt METAR ETWM 170620Z 25004KT 9999 FEW025 BKN280 16/14 Q1020 BLU+
07:20
V
14 °C 10 km+ - Var   Var 3 kt METAR ETWM 170520Z VRB03KT 9999 FEW060 SCT300 14/13 Q1019 BLU+
06:20
V
12 °C 10 km+ - Var   Var 2 kt METAR ETWM 170420Z VRB02KT 9999 BCFG FEW025 12/12 Q1019 BLU+
05:20
L
12 °C 0 m - 230°   230° 2 kt METAR ETWM 170320Z AUTO 23002KT //// // ////// 12/12 Q1019 ///
04:20
L
13 °C 0 m - Var   Var 2 kt METAR ETWM 170220Z AUTO VRB02KT //// // ////// 13/12 Q1019 ///
03:20
L
13 °C 0 m - 240°   240° 2 kt METAR ETWM 170120Z AUTO 24002KT //// // ////// 13/13 Q1019 ///
02:20
L
14 °C 0 m - Var   Var 2 kt METAR ETWM 170020Z AUTO VRB02KT //// // ////// 14/14 Q1019 ///
01:20
L
15 °C 0 m - Var   Var 3 kt METAR ETWM 162320Z AUTO VRB03KT //// // ////// 15/14 Q1019 ///
00:20
L
14 °C 0 m - Var   Var 2 kt METAR ETWM 162220Z AUTO VRB02KT //// // ////// 14/14 Q1018 ///

16. Mai 2022

Uhrzeit Code Wetter Temp. Sichtweite Wolken Wind METAR/SPECI
23:20
L
14 °C 0 m - 210°   210° 2 kt METAR ETWM 162120Z AUTO 21002KT //// // ////// 14/14 Q1018 ///
22:20
L
15 °C 0 m - Var   Var 3 kt METAR ETWM 162020Z AUTO VRB03KT //// // ////// 15/14 Q1018 ///
21:20
L
16 °C 0 m - 270°   270° 3 kt METAR ETWM 161920Z AUTO 27003KT //// // ////// 16/15 Q1017 ///
20:20
L
16 °C 0 m - 290°   290° 5 kt METAR ETWM 161820Z AUTO 29005KT //// // ////// 16/15 Q1017 ///
19:20
L
17 °C 0 m - 280°   280° 7 kt METAR ETWM 161720Z AUTO 28007KT //// // ////// 17/15 Q1016 ///
18:20
L
19 °C 0 m - 260°   260° 6 kt METAR ETWM 161620Z AUTO 26006KT //// // ////// 19/16 Q1015 ///
17:20
L
24 °C 0 m - 220°   220° 4 kt METAR ETWM 161520Z AUTO 22004KT //// // ////// 24/12 Q1014 ///
16:20
V
23 °C 10 km+ 10.000 ft 200°   200° 2 kt METAR ETWM 161420Z 20002KT 9999 FEW050 BKN100 23/12 Q1014 BLU
15:20
V
24 °C 10 km+ 9.400 ft 240°   240° 4 kt METAR ETWM 161320Z 24004KT 9999 FEW055 BKN094 24/11 Q1014 BLU
14:20
V
25 °C 10 km+ 10.000 ft 160°   160° 3 kt METAR ETWM 161220Z 16003KT 9999 FEW060 BKN100 25/10 Q1014 BLU
13:20
V
25 °C 10 km+ 14.000 ft 130°   130° 6 kt METAR ETWM 161120Z 13006KT 9999 FEW055 BKN140 25/09 Q1014 BLU
12:20
V
24 °C 10 km+ 16.000 ft 120°   120° 6 kt METAR ETWM 161020Z 12006KT 9999 FEW050 BKN160 24/09 Q1014 BLU
11:20
V
22 °C 10 km+ 30.000 ft 110°   110° 7 kt METAR ETWM 160920Z 11007KT 9999 FEW190 SCT240 BKN300 22/08 Q1014 BLU+
10:20
V
19 °C 10 km+ - 100°   100° 9 kt METAR ETWM 160820Z 10009KT 9999 FEW044 SCT190 19/07 Q1014 BLU+
09:20
V
18 °C 10 km+ 32.000 ft 080°   080° 9 kt METAR ETWM 160720Z 08009KT 9999 FEW190 BKN320 18/07 Q1014 BLU+
08:20
V
15 °C 10 km+ 19.000 ft 090°   090° 7 kt METAR ETWM 160620Z 09007KT 9999 BKN190 SCT320 15/07 Q1014 BLU
07:20
V
14 °C 10 km+ - 080°   080° 5 kt METAR ETWM 160520Z 08005KT 9999 SCT190 SCT320 14/07 Q1015 BLU+
06:20
V
12 °C 10 km+ - 070°   070° 4 kt METAR ETWM 160420Z 07004KT 9999 FEW200 SCT310 12/06 Q1015 BLU+
05:20
L
12 °C 0 m - 060°   060° 5 kt METAR ETWM 160320Z AUTO 06005KT //// // ////// 12/06 Q1015 ///
04:20
L
13 °C 0 m - 060°   060° 5 kt METAR ETWM 160220Z AUTO 06005KT //// // ////// 13/06 Q1015 ///
03:20
L
13 °C 0 m - 070°   070° 4 kt METAR ETWM 160120Z AUTO 07004KT //// // ////// 13/07 Q1016 ///
02:20
L
13 °C 0 m - 060°   060° 3 kt METAR ETWM 160020Z AUTO 06003KT //// // ////// 13/08 Q1016 ///
01:20
L
13 °C 0 m - 040°   040° 3 kt METAR ETWM 152320Z AUTO 04003KT //// // ////// 13/10 Q1017 ///
00:20
L
14 °C 0 m - 040°   040° 4 kt METAR ETWM 152220Z AUTO 04004KT //// // ////// 14/10 Q1017 ///

15. Mai 2022

Uhrzeit Code Wetter Temp. Sichtweite Wolken Wind METAR/SPECI
23:20
L
15 °C 0 m - 040°   040° 3 kt METAR ETWM 152120Z AUTO 04003KT //// // ////// 15/09 Q1017 ///
22:20
L
16 °C 0 m - 030°   030° 3 kt METAR ETWM 152020Z AUTO 03003KT //// // ////// 16/05 Q1017 ///
21:20
L
19 °C 0 m - 060°   060° 5 kt METAR ETWM 151920Z AUTO 06005KT //// // ////// 19/05 Q1017 ///
20:20
L
21 °C 0 m - 050°   050° 6 kt METAR ETWM 151820Z AUTO 05006KT //// // ////// 21/06 Q1017 ///
19:20
L
23 °C 0 m - 090°   090° 5 kt METAR ETWM 151720Z AUTO 09005KT //// // ////// 23/05 Q1017 ///
18:20
L
23 °C 0 m - 070°   070° 7 kt METAR ETWM 151620Z AUTO 07007KT //// // ////// 23/05 Q1017 ///
17:20
L
24 °C 0 m - 100°   100° 6 kt METAR ETWM 151520Z AUTO 10006KT //// // ////// 24/05 Q1018 ///
16:20
L
23 °C 0 m - 080°   080° 5 kt METAR ETWM 151420Z AUTO 08005KT //// // ////// 23/04 Q1018 ///
Ältere Daten

Laden Sie unsere App herunter

Einfacher Zugriff auf das gesamte Flugwetter auf Ihrem Mobiltelefon und Tablet.
Mit vielen Funktionen, die auf der Website nicht verfügbar sind, wie Offline-Unterstützung und eine persönliche Flughafenliste.